メインページ
METAR-TAF:

METAR-TAF

空港 :

福岡, 日本

福岡空港

緯度: 33-35N, 経度: 130-27E, 海抜: 9m

現時点の気象観測

当レポートは28分前の23:30(UTC)に作成
南/南東の風 6kt
気温 7°C
湿度 76%
気圧 1022 hPa
視程10km以上
高度3500ftの雲はほとんどない
高度6000ftの千切れ雲あり
高度8000ftの千切れ雲あり

METAR: RJFF 182330Z 16006KT 9999 FEW035 BKN060 BKN080 07/03 Q1022 RMK 1CU035 6SC060 7AC080 A3020

時間: 08:58 (23:58 UTC)

予報

当レポートは50分前の23:08(UTC)に作成
予報は19日の 00時(UTC)から 20日の 06時(UTC)まで有効
南/南東の風 6kt
視程: 9000m
高度3000ftの雲はほとんどない
高度4500ftの千切れ雲あり
小雨
19日の 01時(UTC)から 19日の 03時(UTC)まで徐々に
北/北東の風 6kt

TAF: RJFF 182308Z 1900/2006 15006KT 9000 -RA FEW030 BKN045 BECMG 1901/1903 02006KT

4,000以上の空港の気象観測と天気予報(METAR報とTAF報)

利用可能な観測所は地図上に黄色い丸と赤い丸で示す。

丸の上にカーソルを重ねると観測所名を参照できる。

次にクリックすると気象観測と天気予報を参照できる。

マップの切り替え:黒色「×」印の緑ボタンをクリックして拡大、「-」印の緑ボタンをクリックして縮小、緑色の三角印をクリックして隣りの地図に切り替え


METAR-TAF: